Terminal Aerodrome Forecast
Issued by NWS Goodland, KS

Home | Current Version | Previous Version | Text Only | Print | Product List | Glossary On
Versions: 1 2 3 4 5 6 7 8 9 10 11 12 13 14 15 16 17 18 19 20 21 22 23 24 25
000
FTUS43 KGLD 271150 AAA
TAFGLD
TAF AMD
KGLD 271150Z 2712/2812 04010KT 3SM BR OVC035
     FM271400 05013KT P6SM BKN050
     FM271600 04015G22KT P6SM SCT050 BKN150
     FM272300 06011KT P6SM SCT200
     FM280200 VRB04KT P6SM SKC
     FM280900 29007KT P6SM SKC=

USA.gov is the U.S. government's official web portal to all federal, state and local government web resources and services.